createdAt,value
2019-05-15T00:00:40.489Z,47.05
2019-05-15T00:03:09.658Z,46.90
2019-05-15T00:05:39.350Z,47.05
2019-05-15T00:08:09.874Z,47.26
2019-05-15T00:10:39.598Z,47.07
2019-05-15T00:13:09.455Z,47.14
2019-05-15T00:15:40.175Z,47.11
2019-05-15T00:18:09.967Z,47.20
2019-05-15T00:20:39.825Z,47.08
2019-05-15T00:23:08.634Z,47.12
2019-05-15T00:25:39.401Z,46.93
2019-05-15T00:28:09.679Z,46.96
2019-05-15T00:30:39.202Z,47.06
2019-05-15T00:33:09.101Z,47.08
2019-05-15T00:35:39.603Z,47.27
2019-05-15T00:38:09.733Z,47.34
2019-05-15T00:40:39.714Z,47.31
2019-05-15T00:43:09.207Z,47.53
2019-05-15T00:45:38.777Z,47.31
2019-05-15T00:48:08.929Z,47.26
2019-05-15T00:50:39.406Z,47.21
2019-05-15T00:53:29.913Z,47.28
2019-05-15T00:56:03.381Z,47.71
2019-05-15T00:58:32.533Z,47.47
2019-05-15T01:01:08.300Z,47.52
2019-05-15T01:03:39.844Z,47.58
2019-05-15T01:06:08.995Z,47.41
2019-05-15T01:08:40.472Z,47.67
2019-05-15T01:11:13.023Z,47.81
2019-05-15T01:13:49.240Z,47.64
2019-05-15T01:16:18.718Z,47.75
2019-05-15T01:18:54.416Z,47.98
2019-05-15T01:21:28.944Z,47.79
2019-05-15T01:24:08.439Z,47.77
2019-05-15T01:26:41.597Z,47.84
2019-05-15T01:29:18.292Z,48.06
2019-05-15T01:31:53.906Z,48.12
2019-05-15T01:34:23.368Z,47.79
2019-05-15T01:36:59.120Z,47.77
2019-05-15T01:39:32.112Z,47.71
2019-05-15T01:42:08.312Z,47.87
2019-05-15T01:44:38.996Z,47.72
2019-05-15T01:47:13.221Z,47.70
2019-05-15T01:49:49.088Z,47.87
2019-05-15T01:52:18.775Z,48.11
2019-05-15T01:54:49.666Z,48.14
2019-05-15T01:57:22.623Z,48.03
2019-05-15T01:59:58.264Z,47.90
2019-05-15T02:02:33.355Z,47.84
2019-05-15T02:05:09.090Z,47.90
2019-05-15T02:07:42.200Z,47.78
2019-05-15T02:10:18.714Z,47.93
2019-05-15T02:12:52.222Z,47.87
2019-05-15T02:15:21.992Z,47.99
2019-05-15T02:17:52.099Z,47.89
2019-05-15T02:20:28.966Z,48.10
2019-05-15T02:22:59.088Z,48.08
2019-05-15T02:25:28.396Z,48.13
2019-05-15T02:27:58.718Z,48.01
2019-05-15T02:30:34.169Z,48.08
2019-05-15T02:33:01.173Z,48.13
2019-05-15T02:35:33.704Z,48.08
2019-05-15T02:38:02.967Z,48.18
2019-05-15T02:40:35.600Z,48.18
2019-05-15T02:43:14.527Z,48.18
2019-05-15T02:45:45.337Z,48.13
2019-05-15T02:48:20.917Z,48.58
2019-05-15T02:51:10.444Z,48.36
2019-05-15T02:53:50.018Z,48.31
2019-05-15T02:56:38.951Z,48.45
2019-05-15T02:59:19.343Z,48.61
2019-05-15T03:01:53.349Z,48.65
2019-05-15T03:04:41.547Z,48.70
2019-05-15T03:07:19.259Z,48.56
2019-05-15T03:09:59.961Z,48.47
2019-05-15T03:12:29.272Z,48.56
2019-05-15T03:15:10.431Z,48.48
2019-05-15T03:18:00.404Z,48.47
2019-05-15T03:20:34.950Z,48.48
2019-05-15T03:26:08.640Z,48.57
2019-05-15T03:28:39.242Z,48.56
2019-05-15T03:31:25.725Z,48.52
2019-05-15T03:33:44.742Z,48.70
2019-05-15T03:36:13.082Z,48.65
2019-05-15T03:38:40.362Z,48.62
2019-05-15T03:41:10.441Z,48.78
2019-05-15T03:43:39.844Z,48.65
2019-05-15T03:46:09.367Z,48.50
2019-05-15T03:48:40.263Z,48.75
2019-05-15T03:51:09.637Z,48.90
2019-05-15T03:53:40.149Z,48.76
2019-05-15T03:56:10.080Z,48.58
2019-05-15T03:58:40.167Z,48.66
2019-05-15T04:01:27.637Z,48.43
2019-05-15T04:03:40.633Z,48.78
2019-05-15T04:06:10.415Z,48.48
2019-05-15T04:08:39.695Z,48.59
2019-05-15T04:11:09.389Z,48.72
2019-05-15T04:13:39.765Z,49.17
2019-05-15T04:16:13.549Z,48.62
2019-05-15T04:21:51.181Z,48.84
2019-05-15T04:24:44.360Z,49.17
2019-05-15T04:27:10.629Z,49.03
2019-05-15T04:29:40.101Z,49.16
2019-05-15T04:32:10.507Z,49.26
2019-05-15T04:34:40.298Z,49.54
2019-05-15T04:37:09.637Z,49.11
2019-05-15T04:39:40.086Z,49.39
2019-05-15T04:42:22.607Z,49.34
2019-05-15T04:45:19.165Z,49.33
2019-05-15T04:47:40.833Z,49.31
2019-05-15T04:50:10.288Z,49.32
2019-05-15T04:55:56.060Z,49.25
2019-05-15T04:58:25.553Z,49.22
2019-05-15T05:00:59.951Z,49.25
2019-05-15T05:03:29.161Z,49.34
2019-05-15T05:05:59.409Z,49.36
2019-05-15T05:08:29.284Z,49.48
2019-05-15T05:11:06.059Z,49.55
2019-05-15T05:13:44.464Z,49.25
2019-05-15T05:16:19.408Z,49.17
2019-05-15T05:18:49.052Z,49.25
2019-05-15T05:21:18.555Z,49.37
2019-05-15T05:23:48.344Z,49.51
2019-05-15T05:26:25.632Z,49.40
2019-05-15T05:28:55.307Z,49.41
2019-05-15T05:31:24.486Z,49.49
2019-05-15T05:33:53.775Z,50.12
2019-05-15T05:36:22.943Z,49.73
2019-05-15T05:38:52.175Z,50.14
2019-05-15T05:41:21.411Z,50.93
2019-05-15T05:43:50.563Z,51.04
2019-05-15T05:46:19.746Z,50.92
2019-05-15T05:48:49.114Z,51.15
2019-05-15T05:51:21.714Z,51.23
2019-05-15T05:53:51.069Z,51.38
2019-05-15T05:56:20.264Z,51.36
2019-05-15T05:58:49.436Z,51.36
2019-05-15T06:01:18.937Z,51.36
2019-05-15T06:03:49.071Z,51.36
2019-05-15T06:06:18.800Z,51.35
2019-05-15T06:08:48.167Z,51.23
2019-05-15T06:11:18.334Z,51.35
2019-05-15T06:13:52.299Z,51.45
2019-05-15T06:16:19.136Z,51.39
2019-05-15T06:18:49.112Z,51.16
2019-05-15T06:21:18.642Z,51.11
2019-05-15T06:23:54.784Z,50.95
2019-05-15T06:26:30.697Z,50.94
2019-05-15T06:29:00.313Z,50.65
2019-05-15T06:31:29.467Z,50.84
2019-05-15T06:33:58.650Z,50.56
2019-05-15T06:36:28.879Z,50.54
2019-05-15T06:39:00.310Z,50.42
2019-05-15T06:41:29.552Z,50.40
2019-05-15T06:43:59.003Z,50.35
2019-05-15T06:46:28.327Z,50.18
2019-05-15T06:48:58.056Z,50.29
2019-05-15T06:51:28.814Z,50.07
2019-05-15T06:53:58.403Z,49.86
2019-05-15T06:59:08.717Z,49.15
2019-05-15T07:01:48.828Z,48.83
2019-05-15T07:04:18.154Z,48.63
2019-05-15T07:06:58.378Z,48.13
2019-05-15T07:09:31.926Z,48.10
2019-05-15T07:12:18.942Z,47.90
2019-05-15T07:15:04.120Z,47.74
2019-05-15T07:17:48.565Z,47.58
2019-05-15T07:20:30.288Z,47.79
2019-05-15T07:23:18.540Z,47.75
2019-05-15T07:26:00.676Z,47.32
2019-05-15T07:28:40.086Z,46.92
2019-05-15T07:31:11.666Z,46.91
2019-05-15T07:33:43.628Z,47.01
2019-05-15T07:36:19.791Z,46.42
2019-05-15T07:38:54.159Z,45.73
2019-05-15T07:41:35.777Z,45.56
2019-05-15T07:44:18.845Z,45.64
2019-05-15T07:47:05.572Z,45.09
2019-05-15T07:49:35.996Z,43.78
2019-05-15T07:52:05.177Z,43.26
2019-05-15T07:54:34.364Z,42.95
2019-05-15T07:57:05.510Z,42.26
2019-05-15T07:59:34.700Z,41.68
2019-05-15T08:02:03.847Z,41.28
2019-05-15T08:04:33.282Z,40.72
2019-05-15T08:07:02.431Z,40.73
2019-05-15T08:09:31.592Z,39.98
2019-05-15T08:12:03.236Z,40.00
2019-05-15T08:14:31.740Z,39.75
2019-05-15T08:17:00.928Z,39.62
2019-05-15T08:19:30.102Z,39.58
2019-05-15T08:21:59.284Z,39.31
2019-05-15T08:24:29.794Z,38.59
2019-05-15T08:27:01.512Z,38.48
2019-05-15T08:29:30.700Z,39.56
2019-05-15T08:31:59.887Z,39.59
2019-05-15T08:34:29.395Z,39.43
2019-05-15T08:36:59.499Z,39.34
2019-05-15T08:39:28.668Z,38.14
2019-05-15T08:41:58.474Z,38.41
2019-05-15T08:44:29.348Z,37.58
2019-05-15T08:47:00.648Z,38.09
2019-05-15T08:49:30.745Z,37.22
2019-05-15T08:52:00.128Z,36.85
2019-05-15T08:54:29.549Z,35.82
2019-05-15T08:56:59.354Z,35.13
2019-05-15T08:59:29.505Z,35.81
2019-05-15T09:01:58.852Z,35.78
2019-05-15T09:04:34.612Z,35.79
2019-05-15T09:07:01.329Z,36.05
2019-05-15T09:09:29.957Z,34.92
2019-05-15T09:12:00.206Z,35.89
2019-05-15T09:14:29.404Z,34.25
2019-05-15T09:16:58.602Z,34.69
2019-05-15T09:19:28.243Z,33.90
2019-05-15T09:21:59.981Z,33.76
2019-05-15T09:24:29.229Z,34.62
2019-05-15T09:26:59.643Z,34.48
2019-05-15T09:29:29.369Z,34.25
2019-05-15T09:31:58.878Z,33.51
2019-05-15T09:34:45.027Z,34.88
2019-05-15T09:37:00.018Z,35.02
2019-05-15T09:39:29.364Z,32.37
2019-05-15T09:41:58.541Z,32.84
2019-05-15T09:44:28.497Z,31.96
2019-05-15T09:47:00.346Z,33.15
2019-05-15T09:49:31.130Z,33.69
2019-05-15T09:52:00.375Z,33.81
2019-05-15T09:54:29.962Z,33.08
2019-05-15T09:57:00.127Z,32.47
2019-05-15T09:59:49.026Z,32.44
2019-05-15T10:02:18.965Z,32.77
2019-05-15T10:05:05.117Z,33.05
2019-05-15T10:07:19.492Z,33.13
2019-05-15T10:09:52.231Z,32.29
2019-05-15T10:12:19.738Z,32.43
2019-05-15T10:14:49.516Z,33.22
2019-05-15T10:17:18.656Z,32.86
2019-05-15T10:19:48.878Z,32.43
2019-05-15T10:22:18.723Z,31.75
2019-05-15T10:24:50.902Z,32.75
2019-05-15T10:27:18.929Z,31.95
2019-05-15T10:29:48.483Z,32.54
2019-05-15T10:32:19.423Z,32.60
2019-05-15T10:34:47.793Z,32.96
2019-05-15T10:37:18.599Z,31.24
2019-05-15T10:39:52.138Z,32.55
2019-05-15T10:42:19.480Z,32.48
2019-05-15T10:44:48.890Z,32.18
2019-05-15T10:47:18.090Z,32.06
2019-05-15T10:49:48.449Z,32.57
2019-05-15T10:52:18.105Z,32.00
2019-05-15T10:54:47.828Z,32.17
2019-05-15T10:57:18.860Z,32.53
2019-05-15T10:59:47.950Z,32.13
2019-05-15T11:02:19.226Z,31.02
2019-05-15T11:04:48.715Z,31.92
2019-05-15T11:07:19.460Z,32.43
2019-05-15T11:09:49.127Z,31.49
2019-05-15T11:12:19.041Z,31.59
2019-05-15T11:14:48.280Z,31.46
2019-05-15T11:17:19.564Z,32.00
2019-05-15T11:20:09.876Z,31.08
2019-05-15T11:22:42.881Z,30.99
2019-05-15T11:25:10.698Z,31.31
2019-05-15T11:27:39.834Z,30.88
2019-05-15T11:30:10.609Z,30.98
2019-05-15T11:32:39.778Z,31.18
2019-05-15T11:35:10.611Z,30.67
2019-05-15T11:37:45.385Z,30.85
2019-05-15T11:40:13.329Z,30.17
2019-05-15T11:42:48.913Z,30.84
2019-05-15T11:45:18.729Z,31.52
2019-05-15T11:47:49.017Z,31.77
2019-05-15T11:50:20.404Z,30.30
2019-05-15T11:52:49.613Z,30.00
2019-05-15T11:55:22.087Z,30.53
2019-05-15T11:57:55.587Z,30.95
2019-05-15T12:00:27.206Z,31.62
2019-05-15T12:02:58.426Z,31.42
2019-05-15T12:05:29.989Z,30.78
2019-05-15T12:07:59.269Z,31.10
2019-05-15T12:10:29.031Z,30.28
2019-05-15T12:12:58.763Z,30.50
2019-05-15T12:15:28.268Z,30.76
2019-05-15T12:17:59.157Z,30.47
2019-05-15T12:20:28.778Z,30.70
2019-05-15T12:23:01.248Z,30.10
2019-05-15T12:25:33.878Z,30.22
2019-05-15T12:28:03.031Z,30.31
2019-05-15T12:30:32.311Z,31.02
2019-05-15T12:33:03.807Z,30.54
2019-05-15T12:35:33.416Z,30.87
2019-05-15T12:38:03.543Z,30.89
2019-05-15T13:00:44.451Z,30.31
2019-05-15T13:03:12.971Z,29.78
2019-05-15T13:05:42.060Z,30.53
2019-05-15T13:08:12.579Z,30.15
2019-05-15T13:10:41.789Z,30.29
2019-05-15T13:13:13.287Z,30.01
2019-05-15T13:15:42.550Z,29.60
2019-05-15T13:18:14.494Z,29.65
2019-05-15T13:20:42.852Z,29.56
2019-05-15T13:23:12.383Z,29.60
2019-05-15T13:25:41.860Z,30.22
2019-05-15T13:28:12.636Z,30.57
2019-05-15T13:30:41.972Z,30.13
2019-05-15T13:33:11.219Z,30.22
2019-05-15T13:35:40.766Z,29.82
2019-05-15T13:38:10.153Z,29.66
2019-05-15T13:40:42.098Z,30.10
2019-05-15T13:43:10.143Z,30.44
2019-05-15T13:45:38.916Z,30.55
2019-05-15T13:48:08.913Z,30.35
2019-05-15T13:50:40.311Z,29.89
2019-05-15T13:53:11.256Z,29.36
2019-05-15T13:55:42.839Z,29.60
2019-05-15T13:58:11.707Z,29.85
2019-05-15T14:00:40.949Z,29.79
2019-05-15T14:03:10.749Z,29.45
2019-05-15T14:05:39.921Z,29.67
2019-05-15T14:08:10.396Z,29.11
2019-05-15T14:10:58.997Z,30.16
2019-05-15T14:13:30.571Z,29.38
2019-05-15T14:16:01.366Z,30.39
2019-05-15T14:18:29.858Z,29.61
2019-05-15T14:20:59.095Z,30.19
2019-05-15T14:23:29.707Z,29.52
2019-05-15T14:26:12.995Z,29.62
2019-05-15T14:28:29.915Z,29.82
2019-05-15T14:30:59.146Z,29.58
2019-05-15T14:33:29.222Z,29.80
2019-05-15T14:35:59.123Z,29.29
2019-05-15T14:38:29.096Z,29.73
2019-05-15T14:40:59.018Z,30.21
2019-05-15T14:43:29.369Z,30.02
2019-05-15T14:46:00.793Z,29.12
2019-05-15T14:48:32.865Z,28.81
2019-05-15T14:51:02.093Z,29.57
2019-05-15T14:53:31.273Z,29.69
2019-05-15T14:56:03.940Z,29.22
2019-05-15T14:58:38.628Z,29.47
2019-05-15T15:01:12.512Z,29.46
2019-05-15T15:03:38.375Z,29.54
2019-05-15T15:06:08.701Z,29.11
2019-05-15T15:08:38.540Z,29.17
2019-05-15T15:11:08.769Z,28.88
2019-05-15T15:13:38.364Z,29.40
2019-05-15T15:16:08.417Z,29.72
2019-05-15T15:18:38.628Z,29.80
2019-05-15T15:21:08.655Z,29.69
2019-05-15T15:23:38.788Z,29.18
2019-05-15T15:26:08.411Z,29.58
2019-05-15T15:28:39.980Z,29.66
2019-05-15T15:31:09.526Z,29.54
2019-05-15T15:33:39.335Z,29.73
2019-05-15T15:36:08.936Z,29.60
2019-05-15T15:38:43.203Z,29.66
2019-05-15T15:41:08.658Z,30.25
2019-05-15T15:43:38.779Z,29.99
2019-05-15T15:46:08.774Z,30.36
2019-05-15T15:48:39.303Z,30.11
2019-05-15T15:51:09.721Z,29.84
2019-05-15T15:53:39.232Z,30.45
2019-05-15T15:56:10.629Z,30.63
2019-05-15T15:58:39.203Z,31.18
2019-05-15T16:01:10.916Z,30.68
2019-05-15T16:03:41.169Z,31.02
2019-05-15T16:06:13.594Z,31.15
2019-05-15T16:08:54.833Z,30.81
2019-05-15T16:11:14.306Z,30.58
2019-05-15T16:13:46.232Z,31.28
2019-05-15T16:16:14.393Z,31.16
2019-05-15T16:18:43.556Z,31.18
2019-05-15T16:21:12.779Z,30.97
2019-05-15T16:23:42.261Z,31.12
2019-05-15T16:26:11.516Z,31.53
2019-05-15T16:28:40.671Z,31.48
2019-05-15T16:31:09.947Z,31.79
2019-05-15T16:33:39.170Z,31.51
2019-05-15T16:36:09.678Z,31.43
2019-05-15T16:38:39.151Z,31.58
2019-05-15T16:41:09.135Z,31.85
2019-05-15T16:43:38.464Z,31.60
2019-05-15T16:46:09.139Z,31.78
2019-05-15T16:48:39.112Z,31.76
2019-05-15T16:51:11.346Z,31.66
2019-05-15T16:53:44.168Z,31.73
2019-05-15T16:56:15.504Z,31.84
2019-05-15T16:58:44.634Z,31.88
2019-05-15T17:01:19.517Z,32.03
2019-05-15T17:03:52.982Z,32.17
2019-05-15T17:06:22.140Z,32.12
2019-05-15T17:08:51.347Z,32.17
2019-05-15T17:11:20.789Z,32.26
2019-05-15T17:13:50.949Z,32.46
2019-05-15T17:16:20.177Z,32.85
2019-05-15T17:18:49.703Z,32.58
2019-05-15T17:21:20.732Z,32.69
2019-05-15T17:23:50.033Z,32.69
2019-05-15T17:26:19.606Z,32.80
2019-05-15T17:28:48.118Z,32.72
2019-05-15T17:31:18.209Z,33.02
2019-05-15T17:33:48.942Z,32.63
2019-05-15T17:36:18.891Z,32.65
2019-05-15T17:38:48.726Z,32.81
2019-05-15T17:41:18.382Z,32.78
2019-05-15T17:43:48.546Z,32.94
2019-05-15T17:46:17.863Z,33.14
2019-05-15T17:48:54.158Z,33.28
2019-05-15T17:51:18.001Z,33.32
2019-05-15T17:53:48.895Z,33.24
2019-05-15T17:56:18.123Z,33.43
2019-05-15T17:58:48.707Z,33.60
2019-05-15T18:01:21.470Z,33.63
2019-05-15T18:03:51.944Z,33.80
2019-05-15T18:06:21.951Z,33.90
2019-05-15T18:08:51.275Z,34.08
2019-05-15T18:11:20.418Z,34.25
2019-05-15T18:13:49.715Z,34.46
2019-05-15T18:16:18.859Z,34.54
2019-05-15T18:18:48.030Z,34.67
2019-05-15T18:21:22.184Z,34.77
2019-05-15T18:23:51.447Z,34.88
2019-05-15T18:26:20.668Z,34.95
2019-05-15T18:28:49.861Z,35.01
2019-05-15T18:31:19.434Z,35.02
2019-05-15T18:33:53.962Z,35.08
2019-05-15T18:36:19.888Z,35.13
2019-05-15T18:38:49.400Z,35.16
2019-05-15T18:41:20.389Z,35.31
2019-05-15T18:43:49.588Z,35.50
2019-05-15T18:46:18.878Z,35.63
2019-05-15T18:48:48.655Z,35.70
2019-05-15T18:51:17.787Z,35.69
2019-05-15T18:53:48.183Z,35.80
2019-05-15T18:56:18.671Z,35.95
2019-05-15T18:58:48.606Z,36.06
2019-05-15T19:01:17.973Z,36.14
2019-05-15T19:03:47.102Z,36.25
2019-05-15T19:06:18.429Z,36.26
2019-05-15T19:08:47.248Z,36.59
2019-05-15T19:11:18.368Z,36.33
2019-05-15T19:13:48.167Z,36.33
2019-05-15T19:16:17.359Z,36.42
2019-05-15T19:18:47.913Z,36.39
2019-05-15T19:21:17.164Z,36.35
2019-05-15T19:23:47.801Z,36.59
2019-05-15T19:26:18.316Z,36.70
2019-05-15T19:28:48.678Z,36.69
2019-05-15T19:31:26.777Z,37.07
2019-05-15T19:33:49.276Z,36.95
2019-05-15T19:36:19.433Z,37.14
2019-05-15T19:38:49.020Z,36.97
2019-05-15T19:41:18.437Z,36.94
2019-05-15T19:43:48.722Z,37.06
2019-05-15T19:46:18.008Z,37.05
2019-05-15T19:48:48.929Z,37.21
2019-05-15T19:51:18.740Z,37.06
2019-05-15T19:53:48.567Z,37.27
2019-05-15T19:56:18.856Z,37.36
2019-05-15T19:58:49.609Z,37.32
2019-05-15T20:01:19.015Z,37.74
2019-05-15T20:03:52.903Z,38.20
2019-05-15T20:06:27.958Z,38.10
2019-05-15T21:19:19.233Z,39.85
2019-05-15T21:21:54.829Z,39.66
2019-05-15T21:24:28.351Z,40.25
2019-05-15T21:27:00.343Z,40.00
2019-05-15T21:29:29.437Z,40.26
2019-05-15T21:32:01.563Z,40.23
2019-05-15T21:34:37.716Z,40.27
2019-05-15T21:37:08.744Z,40.63
2019-05-15T21:39:42.944Z,40.77
2019-05-15T21:42:12.458Z,41.04
2019-05-15T21:44:42.710Z,41.15
2019-05-15T21:47:11.866Z,41.18
2019-05-15T21:49:41.684Z,41.07
2019-05-15T21:52:11.568Z,40.87
2019-05-15T21:54:40.963Z,40.73
2019-05-15T21:57:29.225Z,40.99
2019-05-15T21:59:43.219Z,41.00
2019-05-15T22:02:12.833Z,41.29
2019-05-15T22:04:54.785Z,41.13
2019-05-15T22:07:17.878Z,41.12
2019-05-15T22:09:48.739Z,41.54
2019-05-15T22:12:21.232Z,41.15
2019-05-15T22:14:57.678Z,41.52
2019-05-15T22:17:33.724Z,41.60
2019-05-15T22:20:03.535Z,41.76
2019-05-15T22:22:36.520Z,41.94
2019-05-15T22:25:11.219Z,42.12
2019-05-15T22:27:40.187Z,41.87
2019-05-15T22:30:09.410Z,41.81
2019-05-15T22:32:41.724Z,41.82
2019-05-15T22:35:14.098Z,42.14
2019-05-15T22:37:43.492Z,42.31
2019-05-15T22:40:12.823Z,42.23
2019-05-15T22:42:42.132Z,42.01
2019-05-15T22:45:11.929Z,42.11
2019-05-15T22:47:49.862Z,42.20
2019-05-15T22:50:19.574Z,42.29
2019-05-15T22:52:59.120Z,42.12
2019-05-15T22:55:29.096Z,42.37
2019-05-15T22:57:59.250Z,42.32
2019-05-15T23:00:33.844Z,42.26
2019-05-15T23:03:03.217Z,42.39
2019-05-15T23:05:35.271Z,42.38
2019-05-15T23:08:13.409Z,42.61
2019-05-15T23:10:45.162Z,42.75
2019-05-15T23:13:14.514Z,42.71
2019-05-15T23:15:43.669Z,42.46
2019-05-15T23:18:18.029Z,42.80
2019-05-15T23:20:54.419Z,42.71
2019-05-15T23:23:38.116Z,42.68
2019-05-15T23:26:07.517Z,42.69
2019-05-15T23:28:38.652Z,42.83
2019-05-15T23:31:12.358Z,42.82
2019-05-15T23:33:48.583Z,42.82
2019-05-15T23:36:31.025Z,42.90
2019-05-15T23:39:18.373Z,42.99
2019-05-15T23:41:58.348Z,42.80
2019-05-15T23:44:38.084Z,42.84
2019-05-15T23:47:07.263Z,42.94
2019-05-15T23:49:41.704Z,42.35
2019-05-15T23:52:24.605Z,42.66
2019-05-15T23:54:58.820Z,42.99
2019-05-15T23:57:28.643Z,42.86
